PWK weather

Chicago Executive Airport
Chicago/Prospect Heights/Wheeling, Illinois, United States

Public forecast

Using degrees Fahrenheit for public forecast. Weather courtesy of forecast.io.

Current aviation weather report (METAR) for Chicago Executive Airport

Retrieved 2019/12/09 17:52 UTC (13 minutes ago):

KPWK 091752Z 22007KT 9SM OVC007 09/07 A2946 RMK AO2 SLP978 60000 T00890067 10089 20083 58021

Closest aviation forecast (TAF) to Chicago Executive Airport

Closest forecast is Chicago O'Hare International Airport, 8.1 nm (15.1 km) S. Retrieved 2019/12/09 18:22 UTC (0 seconds ago):

TAF KORD 091720Z 0918/1024 24012G21KT 5SM -DZ BR OVC007 TEMPO 0918/0920 3SM -DZ BR OVC005 FM092300 29019G30KT P6SM OVC015 TEMPO 0923/1001 4SM -SHRA FM100400 29015G25KT P6SM BKN025 FM100900 29012G19KT P6SM SCT025 FM101600 28010G15KT P6SM FEW250